Pagrindinis puslapis
METAR-TAF:

METAR-TAF

Oro uostai :

NASA Shuttle Landing Facility

Kenedžio kosminių skrydžių centras, Florida, Jungtinės Amerikos Valstijos

platuma: 28-37N, ilguma: 080-43W, Aukštis: 3 m

Dabartinis oras

Ataskaita buvo paskelbta 25 minutes, ne 04:56 UTC
Vėjas 4 kt iš Šiaurės
Temperatūra 22°C
Drėgmė 94%
Slėgis 1019 hPa
Matomumas: 16.1 km
Išsisklaidę debesys ne aukštis 19000 ft

METAR: KTTS 290456Z AUTO 36004KT 10SM SCT190 22/21 A3010 RMK AO2 SLP197 T02180206 403190217 $

Laikas: 01:21 (05:21 UTC)


TAF: trūkstamas

Orai ataskaitas ir orų prognozės (METAR, TAF).

turimą stotys yra geltonos ir raudonos taškus žemėlapyje.

Perkelti pele per norėdami pamatyti stoties vardą.

Tada spustelėkite, norėdami matyti oro stebėjimo ir prognozės.

Norėdami pakeisti žemėlapį: spustelėkite ant žalios mygtukų su juodo kryžiaus žemyn,; žalią mygtuką su brūkšneliu, jei norite nutolinti; arba žalių rodyklių gretimoms žemėlapius.


METAR-TAF: